createdAt,value
2022-12-11T00:00:27.133Z,5.80
2022-12-11T00:02:54.081Z,5.80
2022-12-11T00:05:21.062Z,5.80
2022-12-11T00:07:48.041Z,5.80
2022-12-11T00:10:14.972Z,5.90
2022-12-11T00:12:41.860Z,6.00
2022-12-11T00:15:09.459Z,6.00
2022-12-11T00:17:39.570Z,5.90
2022-12-11T00:20:09.354Z,5.90
2022-12-11T00:22:36.702Z,5.80
2022-12-11T00:25:04.275Z,5.80
2022-12-11T00:27:31.428Z,5.80
2022-12-11T00:29:59.550Z,5.80
2022-12-11T00:32:28.445Z,5.80
2022-12-11T00:34:55.674Z,5.80
2022-12-11T00:37:22.577Z,5.80
2022-12-11T00:39:49.527Z,5.90
2022-12-11T00:42:16.399Z,5.90
2022-12-11T00:44:43.207Z,5.90
2022-12-11T00:47:10.025Z,5.90
2022-12-11T00:49:36.889Z,6.00
2022-12-11T00:52:03.806Z,6.00
2022-12-11T00:54:30.714Z,6.00
2022-12-11T00:56:57.592Z,6.00
2022-12-11T00:59:24.423Z,6.00
2022-12-11T01:01:51.818Z,6.00
2022-12-11T01:04:18.660Z,6.10
2022-12-11T01:06:45.500Z,6.10
2022-12-11T01:09:30.849Z,6.10
2022-12-11T01:11:57.702Z,6.10
2022-12-11T01:14:24.663Z,6.10
2022-12-11T01:16:51.565Z,6.10
2022-12-11T01:19:18.387Z,6.00
2022-12-11T01:21:45.329Z,6.00
2022-12-11T01:24:12.169Z,6.00
2022-12-11T01:26:39.019Z,6.00
2022-12-11T01:29:05.907Z,6.00
2022-12-11T01:31:33.685Z,6.10
2022-12-11T01:34:00.554Z,6.10
2022-12-11T01:36:27.393Z,6.10
2022-12-11T01:38:54.537Z,6.10
2022-12-11T01:41:22.210Z,6.10
2022-12-11T01:44:15.247Z,6.10
2022-12-11T01:46:42.956Z,6.20
2022-12-11T01:49:12.820Z,6.20
2022-12-11T01:51:53.070Z,6.10
2022-12-11T01:54:23.755Z,6.20
2022-12-11T01:56:53.114Z,6.20
2022-12-11T01:59:24.625Z,6.30
2022-12-11T02:01:55.399Z,6.30
2022-12-11T02:04:23.298Z,6.30
2022-12-11T02:06:52.317Z,6.30
2022-12-11T02:09:26.962Z,6.30
2022-12-11T02:12:08.549Z,6.30
2022-12-11T02:15:08.946Z,6.30
2022-12-11T02:17:44.229Z,6.40
2022-12-11T02:20:18.849Z,6.40
2022-12-11T02:23:12.954Z,6.30
2022-12-11T02:26:04.148Z,6.30
2022-12-11T02:28:45.429Z,6.30
2022-12-11T02:32:09.855Z,6.30
2022-12-11T02:34:55.702Z,6.30
2022-12-11T02:37:26.260Z,6.20
2022-12-11T02:39:55.366Z,6.30
2022-12-11T02:42:26.915Z,6.30
2022-12-11T02:44:56.841Z,6.20
2022-12-11T02:47:26.760Z,6.20
2022-12-11T02:49:56.439Z,6.20
2022-12-11T02:52:25.449Z,6.20
2022-12-11T02:54:55.700Z,6.20
2022-12-11T02:57:46.399Z,6.20
2022-12-11T03:00:13.996Z,6.20
2022-12-11T03:02:42.217Z,6.20
2022-12-11T03:05:11.325Z,6.20
2022-12-11T03:07:42.150Z,6.20
2022-12-11T03:10:11.497Z,6.20
2022-12-11T03:12:42.097Z,6.20
2022-12-11T03:15:14.042Z,6.20
2022-12-11T03:17:47.098Z,6.30
2022-12-11T03:20:29.726Z,6.20
2022-12-11T03:23:08.924Z,6.20
2022-12-11T03:25:48.917Z,6.20
2022-12-11T03:28:31.721Z,6.20
2022-12-11T03:31:07.346Z,6.20
2022-12-11T03:33:41.151Z,6.20
2022-12-11T03:36:13.595Z,6.20
2022-12-11T03:39:02.518Z,6.30
2022-12-11T03:41:32.706Z,6.30
2022-12-11T03:43:59.716Z,6.20
2022-12-11T03:46:36.697Z,6.20
2022-12-11T03:49:08.619Z,6.20
2022-12-11T03:51:36.365Z,6.10
2022-12-11T03:54:03.803Z,6.20
2022-12-11T03:56:34.261Z,6.20
2022-12-11T03:59:01.138Z,6.20
2022-12-11T04:01:28.224Z,6.10
2022-12-11T04:03:55.107Z,6.10
2022-12-11T04:06:22.047Z,6.10
2022-12-11T04:08:48.892Z,6.10
2022-12-11T04:11:34.097Z,6.10
2022-12-11T04:14:25.537Z,6.10
2022-12-11T04:16:52.634Z,6.00
2022-12-11T04:19:38.891Z,6.00
2022-12-11T04:22:26.109Z,6.00
2022-12-11T04:24:53.151Z,6.10
2022-12-11T04:27:38.982Z,6.10
2022-12-11T04:30:08.469Z,6.00
2022-12-11T04:32:35.478Z,6.00
2022-12-11T04:35:02.623Z,6.10
2022-12-11T04:37:29.557Z,6.10
2022-12-11T04:39:56.440Z,6.00
2022-12-11T04:42:23.352Z,6.10
2022-12-11T04:44:50.176Z,6.10
2022-12-11T04:47:17.367Z,6.10
2022-12-11T04:49:44.310Z,6.10
2022-12-11T04:52:11.308Z,6.10
2022-12-11T04:54:38.170Z,6.10
2022-12-11T04:57:05.010Z,6.10
2022-12-11T04:59:33.044Z,6.10
2022-12-11T05:02:00.038Z,6.10
2022-12-11T05:04:31.989Z,6.10
2022-12-11T05:06:59.221Z,6.00
2022-12-11T05:09:27.147Z,6.00
2022-12-11T05:11:57.316Z,6.00
2022-12-11T05:14:24.356Z,6.10
2022-12-11T05:16:51.191Z,6.00
2022-12-11T05:19:18.039Z,6.10
2022-12-11T05:21:44.913Z,6.10
2022-12-11T05:24:11.821Z,6.10
2022-12-11T05:26:38.713Z,6.10
2022-12-11T05:29:05.611Z,6.10
2022-12-11T05:31:32.681Z,6.10
2022-12-11T05:33:59.834Z,6.10
2022-12-11T05:36:32.270Z,6.10
2022-12-11T05:39:00.446Z,6.10
2022-12-11T05:41:32.557Z,6.10
2022-12-11T05:43:59.977Z,6.10
2022-12-11T05:46:29.397Z,6.10
2022-12-11T05:48:59.405Z,6.10
2022-12-11T05:51:28.072Z,6.10
2022-12-11T05:53:56.271Z,6.10
2022-12-11T05:56:26.373Z,6.10
2022-12-11T05:58:53.724Z,6.10
2022-12-11T06:01:24.404Z,6.10
2022-12-11T06:03:51.560Z,6.10
2022-12-11T06:06:18.517Z,6.20
2022-12-11T06:08:45.753Z,6.20
2022-12-11T06:11:19.652Z,6.20
2022-12-11T06:13:50.681Z,6.10
2022-12-11T06:16:17.705Z,6.10
2022-12-11T06:18:45.697Z,6.10
2022-12-11T06:21:19.457Z,6.10
2022-12-11T06:23:47.971Z,6.10
2022-12-11T06:26:15.701Z,6.10
2022-12-11T06:28:42.576Z,6.10
2022-12-11T06:31:09.751Z,6.10
2022-12-11T06:33:36.943Z,6.10
2022-12-11T06:36:13.299Z,6.10
2022-12-11T06:38:40.179Z,6.10
2022-12-11T06:41:08.953Z,6.10
2022-12-11T06:43:37.461Z,6.20
2022-12-11T06:46:13.764Z,6.10
2022-12-11T06:48:42.306Z,6.10
2022-12-11T06:51:12.408Z,6.10
2022-12-11T06:53:39.695Z,6.10
2022-12-11T06:56:09.409Z,6.00
2022-12-11T06:58:37.574Z,6.00
2022-12-11T07:01:12.680Z,6.00
2022-12-11T07:03:39.568Z,6.00
2022-12-11T07:06:06.647Z,6.00
2022-12-11T07:08:33.730Z,6.00
2022-12-11T07:11:04.850Z,6.10
2022-12-11T07:13:31.796Z,6.00
2022-12-11T07:16:00.421Z,6.00
2022-12-11T07:18:27.644Z,5.90
2022-12-11T07:20:54.588Z,5.90
2022-12-11T07:23:21.490Z,5.90
2022-12-11T07:25:48.325Z,5.80
2022-12-11T07:28:16.835Z,5.80
2022-12-11T07:30:43.873Z,5.70
2022-12-11T07:33:10.861Z,5.70
2022-12-11T07:35:37.988Z,5.70
2022-12-11T07:38:04.811Z,5.60
2022-12-11T07:40:31.706Z,5.60
2022-12-11T07:42:58.570Z,5.60
2022-12-11T07:45:28.019Z,5.70
2022-12-11T07:47:54.851Z,5.60
2022-12-11T07:50:21.747Z,5.60
2022-12-11T07:52:48.829Z,5.60
2022-12-11T07:55:15.775Z,5.60
2022-12-11T07:57:42.606Z,5.50
2022-12-11T08:00:11.437Z,5.50
2022-12-11T08:02:41.315Z,5.50
2022-12-11T08:05:09.045Z,5.40
2022-12-11T08:07:36.432Z,5.40
2022-12-11T08:10:04.721Z,5.40
2022-12-11T08:12:31.883Z,5.30
2022-12-11T08:14:58.725Z,5.40
2022-12-11T08:17:29.596Z,5.40
2022-12-11T08:19:58.772Z,5.40
2022-12-11T08:22:25.636Z,5.50
2022-12-11T08:24:52.512Z,5.50
2022-12-11T08:27:19.583Z,5.50
2022-12-11T08:29:47.484Z,5.60
2022-12-11T08:32:16.788Z,5.60
2022-12-11T08:34:44.215Z,5.60
2022-12-11T08:37:11.204Z,5.60
2022-12-11T08:39:38.061Z,5.60
2022-12-11T08:42:05.259Z,5.60
2022-12-11T08:44:32.084Z,5.70
2022-12-11T08:46:58.961Z,5.70
2022-12-11T08:49:27.626Z,5.80
2022-12-11T08:51:58.609Z,5.80
2022-12-11T08:54:25.536Z,5.90
2022-12-11T08:56:57.612Z,5.90
2022-12-11T08:59:25.709Z,5.90
2022-12-11T09:01:52.795Z,6.00
2022-12-11T09:04:19.704Z,6.00
2022-12-11T09:06:46.654Z,6.00
2022-12-11T09:09:13.541Z,6.00
2022-12-11T09:11:40.987Z,6.00
2022-12-11T09:14:08.474Z,6.00
2022-12-11T09:16:38.061Z,6.00
2022-12-11T09:19:06.598Z,5.90
2022-12-11T09:21:34.046Z,5.90
2022-12-11T09:24:01.985Z,5.80
2022-12-11T09:26:30.295Z,5.80
2022-12-11T09:28:58.031Z,5.80
2022-12-11T09:31:30.769Z,5.70
2022-12-11T09:34:00.262Z,5.70
2022-12-11T09:36:27.985Z,5.70
2022-12-11T09:38:54.849Z,5.70
2022-12-11T09:41:21.723Z,5.70
2022-12-11T09:44:13.598Z,5.70
2022-12-11T09:46:41.469Z,5.70
2022-12-11T09:49:27.506Z,5.70
2022-12-11T09:52:23.738Z,5.70
2022-12-11T09:54:56.174Z,5.70
2022-12-11T09:57:32.852Z,5.70
2022-12-11T10:00:07.126Z,5.60
2022-12-11T10:03:07.227Z,5.60
2022-12-11T10:06:05.839Z,5.60
2022-12-11T10:08:42.698Z,5.60
2022-12-11T10:11:38.857Z,5.70
2022-12-11T10:14:17.437Z,5.70
2022-12-11T10:17:20.552Z,5.80
2022-12-11T10:19:51.046Z,5.80
2022-12-11T10:22:23.283Z,5.80
2022-12-11T10:25:13.254Z,5.90
2022-12-11T10:27:41.048Z,5.90
2022-12-11T10:30:24.666Z,6.00
2022-12-11T10:33:20.740Z,6.00
2022-12-11T10:35:52.281Z,6.00
2022-12-11T10:38:21.950Z,6.00
2022-12-11T10:41:04.223Z,6.00
2022-12-11T10:43:36.960Z,6.10
2022-12-11T10:46:05.731Z,6.10
2022-12-11T10:48:33.326Z,6.20
2022-12-11T10:51:05.314Z,6.10
2022-12-11T10:53:34.003Z,6.10
2022-12-11T10:56:01.757Z,6.20
2022-12-11T10:58:33.887Z,6.20
2022-12-11T11:01:09.577Z,6.30
2022-12-11T11:03:43.795Z,6.30
2022-12-11T11:06:21.802Z,6.30
2022-12-11T11:08:54.446Z,6.30
2022-12-11T11:11:21.248Z,6.30
2022-12-11T11:13:48.408Z,6.40
2022-12-11T11:16:19.212Z,6.40
2022-12-11T11:18:55.120Z,6.50
2022-12-11T11:21:24.513Z,6.50
2022-12-11T11:23:53.952Z,6.50
2022-12-11T11:26:22.825Z,6.50
2022-12-11T11:28:54.069Z,6.50
2022-12-11T11:31:30.291Z,6.50
2022-12-11T11:34:05.271Z,6.50
2022-12-11T11:36:34.652Z,6.60
2022-12-11T11:39:07.426Z,6.60
2022-12-11T11:41:58.810Z,6.60
2022-12-11T11:45:01.759Z,6.60
2022-12-11T11:47:37.795Z,6.60
2022-12-11T11:50:08.547Z,6.50
2022-12-11T11:53:01.665Z,6.50
2022-12-11T11:55:51.978Z,6.60
2022-12-11T11:58:28.032Z,6.60
2022-12-11T12:00:55.297Z,6.60
2022-12-11T12:03:29.265Z,6.60
2022-12-11T12:06:30.593Z,6.60
2022-12-11T12:09:06.970Z,6.60
2022-12-11T12:11:49.501Z,6.60
2022-12-11T12:14:52.042Z,6.70
2022-12-11T12:17:38.727Z,6.70
2022-12-11T12:20:23.697Z,6.70
2022-12-11T12:23:24.031Z,6.70
2022-12-11T12:25:59.234Z,6.60
2022-12-11T12:28:56.726Z,6.60
2022-12-11T12:31:26.513Z,6.60
2022-12-11T12:33:53.455Z,6.60
2022-12-11T12:36:41.367Z,6.60
2022-12-11T12:39:22.102Z,6.60
2022-12-11T12:42:01.265Z,6.60
2022-12-11T12:44:41.047Z,6.60
2022-12-11T12:47:16.749Z,6.50
2022-12-11T12:49:47.030Z,6.50
2022-12-11T12:52:20.372Z,6.50
2022-12-11T12:55:09.961Z,6.50
2022-12-11T12:57:38.600Z,6.50
2022-12-11T13:00:13.214Z,6.50
2022-12-11T13:02:50.909Z,6.50
2022-12-11T13:05:27.630Z,6.60
2022-12-11T13:07:57.671Z,6.60
2022-12-11T13:10:43.307Z,6.70
2022-12-11T13:13:35.189Z,6.70
2022-12-11T13:16:15.579Z,6.70
2022-12-11T13:18:45.134Z,6.70
2022-12-11T13:21:30.924Z,6.70
2022-12-11T13:24:20.701Z,6.70
2022-12-11T13:26:49.542Z,6.70
2022-12-11T13:29:35.301Z,6.70
2022-12-11T13:32:08.118Z,6.70
2022-12-11T13:34:42.236Z,6.70
2022-12-11T13:37:43.237Z,6.80
2022-12-11T13:40:27.576Z,6.80
2022-12-11T13:42:59.795Z,6.80
2022-12-11T13:45:32.267Z,6.90
2022-12-11T13:48:00.124Z,6.90
2022-12-11T13:50:33.268Z,6.90
2022-12-11T13:53:01.912Z,6.90
2022-12-11T13:55:31.324Z,6.90
2022-12-11T13:57:58.895Z,6.90
2022-12-11T14:00:32.671Z,6.90
2022-12-11T14:03:04.662Z,6.90
2022-12-11T14:05:31.876Z,6.90
2022-12-11T14:08:02.902Z,6.90
2022-12-11T14:10:33.282Z,6.90
2022-12-11T14:13:06.320Z,6.80
2022-12-11T14:15:35.734Z,6.80
2022-12-11T14:18:03.394Z,6.70
2022-12-11T14:20:33.827Z,6.60
2022-12-11T14:23:18.386Z,6.60
2022-12-11T14:26:03.597Z,6.60
2022-12-11T14:28:38.142Z,6.60
2022-12-11T14:31:06.587Z,6.70
2022-12-11T14:33:38.441Z,6.60
2022-12-11T14:36:06.536Z,6.60
2022-12-11T14:38:38.152Z,6.60
2022-12-11T14:41:13.742Z,6.60
2022-12-11T14:43:51.697Z,6.50
2022-12-11T14:46:28.899Z,6.50
2022-12-11T14:49:02.886Z,6.50
2022-12-11T14:51:35.543Z,6.50
2022-12-11T14:54:02.994Z,6.50
2022-12-11T14:56:30.350Z,6.50
2022-12-11T14:59:05.184Z,6.50
2022-12-11T15:01:36.576Z,6.40
2022-12-11T15:04:14.774Z,6.40
2022-12-11T15:06:46.942Z,6.40
2022-12-11T15:09:19.603Z,6.40
2022-12-11T15:11:48.755Z,6.50
2022-12-11T15:14:18.269Z,6.50
2022-12-11T15:16:47.062Z,6.60
2022-12-11T15:19:24.319Z,6.70
2022-12-11T15:21:51.717Z,6.80
2022-12-11T15:24:26.092Z,6.80
2022-12-11T15:26:56.829Z,6.80
2022-12-11T15:29:39.749Z,6.80
2022-12-11T15:32:09.641Z,6.90
2022-12-11T15:34:45.368Z,6.90
2022-12-11T15:37:22.622Z,6.80
2022-12-11T15:39:50.080Z,6.80
2022-12-11T15:42:24.243Z,6.80
2022-12-11T15:44:51.728Z,6.70
2022-12-11T15:47:23.108Z,6.70
2022-12-11T15:49:51.379Z,6.70
2022-12-11T15:52:18.260Z,6.70
2022-12-11T15:54:45.175Z,6.80
2022-12-11T15:57:17.738Z,6.80
2022-12-11T15:59:48.665Z,6.80
2022-12-11T16:02:15.861Z,6.80
2022-12-11T16:04:43.036Z,6.80
2022-12-11T16:07:19.735Z,6.80
2022-12-11T16:09:46.721Z,6.80
2022-12-11T16:12:16.719Z,6.70
2022-12-11T16:14:45.472Z,6.70
2022-12-11T16:17:14.162Z,6.60
2022-12-11T16:19:42.297Z,6.60
2022-12-11T16:22:10.455Z,6.50
2022-12-11T16:24:38.025Z,6.50
2022-12-11T16:27:06.317Z,6.50
2022-12-11T16:29:41.530Z,6.60
2022-12-11T16:32:08.868Z,6.50
2022-12-11T16:34:37.531Z,6.50
2022-12-11T16:37:06.638Z,6.50
2022-12-11T16:39:34.220Z,6.50
2022-12-11T16:42:03.019Z,6.40
2022-12-11T16:44:29.887Z,6.30
2022-12-11T16:46:58.101Z,6.30
2022-12-11T16:49:25.052Z,6.20
2022-12-11T16:51:51.882Z,6.20
2022-12-11T16:54:18.947Z,6.20
2022-12-11T16:56:45.875Z,6.20
2022-12-11T16:59:13.056Z,6.20
2022-12-11T17:01:40.581Z,6.20
2022-12-11T17:04:07.768Z,6.20
2022-12-11T17:06:34.728Z,6.30
2022-12-11T17:09:01.689Z,6.20
2022-12-11T17:11:28.769Z,6.20
2022-12-11T17:13:57.287Z,6.30
2022-12-11T17:16:26.190Z,6.30
2022-12-11T17:18:53.738Z,6.30
2022-12-11T17:21:22.183Z,6.30
2022-12-11T17:23:49.871Z,6.30
2022-12-11T17:26:17.206Z,6.30
2022-12-11T17:28:45.464Z,6.30
2022-12-11T17:31:18.232Z,6.30
2022-12-11T17:33:46.537Z,6.40
2022-12-11T17:36:19.141Z,6.40
2022-12-11T17:38:46.401Z,6.40
2022-12-11T17:41:20.368Z,6.40
2022-12-11T17:43:50.627Z,6.40
2022-12-11T17:46:18.298Z,6.50
2022-12-11T17:48:45.232Z,6.50
2022-12-11T17:51:14.408Z,6.50
2022-12-11T17:53:41.343Z,6.50
2022-12-11T17:56:08.857Z,6.50
2022-12-11T17:58:35.750Z,6.50
2022-12-11T18:01:07.267Z,6.50
2022-12-11T18:03:35.107Z,6.50
2022-12-11T18:06:06.476Z,6.50
2022-12-11T18:08:33.780Z,6.50
2022-12-11T18:11:09.535Z,6.40
2022-12-11T18:13:36.558Z,6.40
2022-12-11T18:16:19.233Z,6.30
2022-12-11T18:18:47.586Z,6.30
2022-12-11T18:21:17.022Z,6.20
2022-12-11T18:23:44.437Z,6.30
2022-12-11T18:26:11.610Z,6.30
2022-12-11T18:28:38.496Z,6.30
2022-12-11T18:31:05.569Z,6.30
2022-12-11T18:33:35.282Z,6.30
2022-12-11T18:36:02.185Z,6.30
2022-12-11T18:38:29.082Z,6.30
2022-12-11T18:40:56.011Z,6.20
2022-12-11T18:43:22.897Z,6.30
2022-12-11T18:45:51.759Z,6.20
2022-12-11T18:48:18.636Z,6.20
2022-12-11T18:50:47.189Z,6.20
2022-12-11T18:53:14.956Z,6.20
2022-12-11T18:55:46.955Z,6.30
2022-12-11T18:58:16.386Z,6.30
2022-12-11T19:00:44.217Z,6.40
2022-12-11T19:03:12.051Z,6.40
2022-12-11T19:05:42.384Z,6.40
2022-12-11T19:08:11.465Z,6.40
2022-12-11T19:10:43.922Z,6.40
2022-12-11T19:13:12.028Z,6.30
2022-12-11T19:15:43.505Z,6.30
2022-12-11T19:18:10.993Z,6.20
2022-12-11T19:20:53.859Z,6.20
2022-12-11T19:23:29.966Z,6.20
2022-12-11T19:25:56.861Z,6.10
2022-12-11T19:28:23.999Z,6.00
2022-12-11T19:30:50.915Z,6.00
2022-12-11T19:33:17.815Z,6.00
2022-12-11T19:35:44.656Z,5.90
2022-12-11T19:38:12.862Z,5.90
2022-12-11T19:40:44.120Z,5.90
2022-12-11T19:43:11.466Z,5.90
2022-12-11T19:45:38.644Z,6.00
2022-12-11T19:48:05.903Z,6.00
2022-12-11T19:50:35.917Z,6.10
2022-12-11T19:53:03.253Z,6.20
2022-12-11T19:55:30.189Z,6.20
2022-12-11T19:57:57.103Z,6.20
2022-12-11T20:00:24.749Z,6.20
2022-12-11T20:02:51.734Z,6.20
2022-12-11T20:05:18.867Z,6.20
2022-12-11T20:07:45.840Z,6.20
2022-12-11T20:10:12.974Z,6.20
2022-12-11T20:12:39.842Z,6.20
2022-12-11T20:15:07.112Z,6.20
2022-12-11T20:17:34.030Z,6.30
2022-12-11T20:20:00.988Z,6.30
2022-12-11T20:22:27.979Z,6.30
2022-12-11T20:24:54.833Z,6.30
2022-12-11T20:27:21.744Z,6.30
2022-12-11T20:29:48.775Z,6.30
2022-12-11T20:32:15.806Z,6.30
2022-12-11T20:34:43.940Z,6.40
2022-12-11T20:37:10.840Z,6.40
2022-12-11T20:39:37.767Z,6.50
2022-12-11T20:42:05.129Z,6.50
2022-12-11T20:44:32.662Z,6.40
2022-12-11T20:46:59.792Z,6.30
2022-12-11T20:49:26.902Z,6.20
2022-12-11T20:51:55.729Z,6.10
2022-12-11T20:54:22.605Z,6.10
2022-12-11T20:56:50.117Z,6.10
2022-12-11T20:59:17.304Z,6.00
2022-12-11T21:01:44.384Z,6.00
2022-12-11T21:04:11.612Z,6.00
2022-12-11T21:06:40.634Z,5.90
2022-12-11T21:09:17.903Z,5.90
2022-12-11T21:11:44.872Z,5.90
2022-12-11T21:14:11.757Z,5.80
2022-12-11T21:16:38.873Z,5.80
2022-12-11T21:19:06.344Z,5.80
2022-12-11T21:21:36.807Z,5.80
2022-12-11T21:24:04.328Z,5.80
2022-12-11T21:26:31.157Z,5.80
2022-12-11T21:28:58.036Z,5.80
2022-12-11T21:31:25.550Z,5.80
2022-12-11T21:33:52.575Z,5.80
2022-12-11T21:36:19.483Z,5.70
2022-12-11T21:38:46.682Z,5.70
2022-12-11T21:41:19.094Z,5.70
2022-12-11T21:44:49.835Z,5.70
2022-12-11T21:46:35.129Z,5.60
2022-12-11T21:49:02.049Z,5.60
2022-12-11T21:51:36.449Z,5.60
2022-12-11T21:54:06.796Z,5.50
2022-12-11T21:56:33.795Z,5.50
2022-12-11T21:59:01.542Z,5.50
2022-12-11T22:01:32.316Z,5.40
2022-12-11T22:03:59.719Z,5.40
2022-12-11T22:06:27.073Z,5.40
2022-12-11T22:08:53.985Z,5.40
2022-12-11T22:11:23.535Z,5.40
2022-12-11T22:13:50.477Z,5.40
2022-12-11T22:16:17.426Z,5.40
2022-12-11T22:18:44.340Z,5.40
2022-12-11T22:21:11.659Z,5.40
2022-12-11T22:23:42.455Z,5.40
2022-12-11T22:26:17.520Z,5.40
2022-12-11T22:28:47.125Z,5.40
2022-12-11T22:31:16.776Z,5.40
2022-12-11T22:33:43.996Z,5.40
2022-12-11T22:36:11.942Z,5.40
2022-12-11T22:38:39.638Z,5.40
2022-12-11T22:41:23.931Z,5.40
2022-12-11T22:43:52.629Z,5.40
2022-12-11T22:46:21.754Z,5.40
2022-12-11T22:48:48.855Z,5.40
2022-12-11T22:51:16.124Z,5.40
2022-12-11T22:53:43.059Z,5.40
2022-12-11T22:56:12.271Z,5.40
2022-12-11T22:58:39.658Z,5.40
2022-12-11T23:01:12.377Z,5.40
2022-12-11T23:03:39.503Z,5.40
2022-12-11T23:06:08.278Z,5.40
2022-12-11T23:08:35.558Z,5.40
2022-12-11T23:11:09.069Z,5.40
2022-12-11T23:13:35.941Z,5.40
2022-12-11T23:16:02.832Z,5.40
2022-12-11T23:18:29.702Z,5.40
2022-12-11T23:20:56.540Z,5.40
2022-12-11T23:23:23.383Z,5.40
2022-12-11T23:25:50.368Z,5.40
2022-12-11T23:28:17.393Z,5.50
2022-12-11T23:30:44.207Z,5.50
2022-12-11T23:33:11.054Z,5.50
2022-12-11T23:35:37.978Z,5.50
2022-12-11T23:38:05.445Z,5.50
2022-12-11T23:40:33.080Z,5.60
2022-12-11T23:42:59.932Z,5.60
2022-12-11T23:45:26.907Z,5.60
2022-12-11T23:47:53.761Z,5.60
2022-12-11T23:50:20.633Z,5.60
2022-12-11T23:52:47.457Z,5.60
2022-12-11T23:55:14.960Z,5.60
2022-12-11T23:57:41.949Z,5.60
